Terminal Aerodrome Forecast
Issued by NWS

Home | Current Version | Previous Version | Text Only | Print | Product List | Glossary On
Versions: 1 2 3 4 5 6 7 8 9 10 11 12 13
000
FTUS45 KABQ 250532
TAFGUP
TAF
KGUP 250532Z 2506/2606 24011KT P6SM FEW120
      TEMPO 2506/2508 25015G25KT
     FM251500 24016G26KT P6SM FEW120
     FM251800 24026G38KT P6SM SCT120
     FM260200 24012G20KT P6SM FEW120=

USA.gov is the U.S. government's official web portal to all federal, state and local government web resources and services.